createdAt,value
2019-02-17T00:01:11.371Z,31.33
2019-02-17T00:03:39.915Z,30.67
2019-02-17T00:06:11.469Z,31.73
2019-02-17T00:08:40.060Z,29.03
2019-02-17T00:11:09.285Z,28.67
2019-02-17T00:13:37.921Z,32.47
2019-02-17T00:16:09.353Z,33.93
2019-02-17T00:18:40.716Z,30.50
2019-02-17T00:21:09.385Z,32.27
2019-02-17T00:23:41.076Z,28.77
2019-02-17T00:26:10.423Z,31.73
2019-02-17T00:28:40.042Z,29.50
2019-02-17T00:31:11.748Z,29.73
2019-02-17T00:33:40.314Z,33.97
2019-02-17T00:36:09.802Z,33.90
2019-02-17T00:38:41.367Z,32.00
2019-02-17T00:41:11.469Z,30.23
2019-02-17T00:43:41.581Z,28.50
2019-02-17T00:46:10.264Z,28.90
2019-02-17T00:48:43.757Z,27.77
2019-02-17T00:51:14.644Z,29.53
2019-02-17T00:53:46.183Z,25.17
2019-02-17T00:56:15.285Z,25.37
2019-02-17T00:58:44.319Z,28.80
2019-02-17T01:01:13.050Z,28.57
2019-02-17T01:03:42.369Z,26.30
2019-02-17T01:06:11.346Z,28.23
2019-02-17T01:08:41.732Z,29.93
2019-02-17T01:11:10.437Z,27.83
2019-02-17T01:13:39.088Z,25.90
2019-02-17T01:16:07.762Z,30.57
2019-02-17T01:18:36.329Z,30.30
2019-02-17T01:21:05.592Z,28.80
2019-02-17T01:23:34.274Z,31.13
2019-02-17T01:26:02.973Z,26.20
2019-02-17T01:28:31.525Z,30.07
2019-02-17T01:31:00.129Z,31.67
2019-02-17T01:33:31.815Z,29.83
2019-02-17T01:36:00.527Z,33.23
2019-02-17T01:38:29.109Z,29.63
2019-02-17T01:41:03.719Z,28.63
2019-02-17T01:43:38.690Z,31.50
2019-02-17T01:46:07.402Z,30.27
2019-02-17T01:48:40.755Z,32.70
2019-02-17T01:51:09.624Z,33.47
2019-02-17T01:53:40.948Z,28.40
2019-02-17T01:56:11.000Z,30.83
2019-02-17T01:58:39.561Z,29.23
2019-02-17T02:01:08.202Z,28.20
2019-02-17T02:03:36.800Z,28.17
2019-02-17T02:06:05.508Z,26.37
2019-02-17T02:08:35.332Z,34.97
2019-02-17T02:11:04.066Z,28.20
2019-02-17T02:13:32.649Z,25.77
2019-02-17T02:16:07.039Z,27.37
2019-02-17T02:18:36.638Z,32.90
2019-02-17T02:21:07.236Z,31.70
2019-02-17T02:23:36.256Z,28.83
2019-02-17T02:26:07.731Z,28.97
2019-02-17T02:28:37.826Z,26.00
2019-02-17T02:31:06.710Z,28.40
2019-02-17T02:33:35.844Z,26.63
2019-02-17T02:36:05.625Z,26.17
2019-02-17T02:38:34.195Z,27.97
2019-02-17T02:41:03.067Z,26.30
2019-02-17T02:43:31.705Z,23.63
2019-02-17T02:46:00.255Z,28.90
2019-02-17T02:48:28.942Z,33.00
2019-02-17T02:50:57.658Z,24.97
2019-02-17T02:53:26.216Z,24.83
2019-02-17T02:55:54.879Z,26.27
2019-02-17T02:58:23.445Z,30.17
2019-02-17T03:00:52.022Z,25.00
2019-02-17T03:03:20.686Z,27.37
2019-02-17T03:05:53.932Z,27.27
2019-02-17T03:08:22.842Z,23.80
2019-02-17T03:10:51.627Z,28.30
2019-02-17T03:13:20.393Z,26.47
2019-02-17T03:15:48.952Z,23.43
2019-02-17T03:18:17.542Z,27.17
2019-02-17T03:20:46.216Z,25.40
2019-02-17T03:23:14.780Z,28.40
2019-02-17T03:25:45.396Z,30.40
2019-02-17T03:28:13.583Z,28.73
2019-02-17T03:30:42.211Z,29.57
2019-02-17T03:33:10.891Z,28.43
2019-02-17T03:35:42.561Z,27.30
2019-02-17T03:38:11.135Z,30.57
2019-02-17T03:40:39.873Z,27.30
2019-02-17T03:43:08.690Z,33.47
2019-02-17T03:45:37.347Z,24.87
2019-02-17T03:48:07.845Z,27.87
2019-02-17T03:50:36.533Z,41.60
2019-02-17T03:53:06.695Z,26.67
2019-02-17T03:55:35.366Z,28.17
2019-02-17T03:58:04.083Z,27.10
2019-02-17T04:00:32.655Z,21.27
2019-02-17T04:03:01.249Z,26.93
2019-02-17T04:05:29.821Z,19.13
2019-02-17T04:07:58.443Z,22.83
2019-02-17T04:10:27.110Z,22.97
2019-02-17T04:12:55.813Z,23.93
2019-02-17T04:15:24.641Z,22.83
2019-02-17T04:17:53.312Z,20.43
2019-02-17T04:20:21.961Z,23.37
2019-02-17T04:22:51.050Z,26.30
2019-02-17T04:25:19.728Z,28.53
2019-02-17T04:27:48.433Z,23.10
2019-02-17T04:30:28.139Z,27.77
2019-02-17T04:32:47.363Z,27.67
2019-02-17T04:35:15.997Z,25.63
2019-02-17T04:37:44.564Z,27.53
2019-02-17T04:40:13.624Z,24.57
2019-02-17T04:42:42.386Z,34.83
2019-02-17T04:45:18.816Z,24.47
2019-02-17T04:47:49.578Z,25.20
2019-02-17T04:50:18.140Z,27.03
2019-02-17T04:52:46.819Z,25.73
2019-02-17T04:55:15.586Z,26.20
2019-02-17T04:57:44.153Z,27.13
2019-02-17T05:00:12.838Z,25.70
2019-02-17T05:02:41.531Z,23.47
2019-02-17T05:05:10.245Z,22.53
2019-02-17T05:07:38.909Z,27.50
2019-02-17T05:10:08.504Z,21.53
2019-02-17T05:12:37.064Z,22.73
2019-02-17T05:15:07.442Z,24.63
2019-02-17T05:17:36.473Z,27.00
2019-02-17T05:20:06.371Z,20.97
2019-02-17T05:22:34.986Z,27.77
2019-02-17T05:25:03.819Z,26.80
2019-02-17T05:27:32.449Z,28.40
2019-02-17T05:30:01.046Z,28.50
2019-02-17T05:32:29.688Z,29.50
2019-02-17T05:34:59.045Z,29.77
2019-02-17T05:37:28.341Z,29.87
2019-02-17T05:39:58.411Z,29.57
2019-02-17T05:42:27.038Z,30.17
2019-02-17T05:44:57.279Z,33.07
2019-02-17T05:47:25.853Z,30.37
2019-02-17T05:49:54.478Z,33.50
2019-02-17T05:52:23.105Z,29.40
2019-02-17T05:54:52.285Z,33.57
2019-02-17T05:57:20.825Z,28.50
2019-02-17T05:59:49.435Z,26.23
2019-02-17T06:02:18.403Z,26.67
2019-02-17T06:04:46.958Z,31.47
2019-02-17T06:07:20.303Z,28.17
2019-02-17T06:09:46.338Z,29.27
2019-02-17T06:12:15.007Z,26.27
2019-02-17T06:14:43.674Z,28.90
2019-02-17T06:17:12.248Z,26.77
2019-02-17T06:19:51.702Z,24.10
2019-02-17T06:22:20.399Z,24.37
2019-02-17T06:24:48.961Z,26.80
2019-02-17T06:27:17.640Z,27.47
2019-02-17T06:29:46.274Z,24.97
2019-02-17T06:32:14.829Z,31.30
2019-02-17T06:34:43.497Z,29.73
2019-02-17T06:37:12.078Z,30.17
2019-02-17T06:39:40.827Z,27.80
2019-02-17T06:42:10.381Z,26.03
2019-02-17T06:44:38.968Z,28.77
2019-02-17T06:47:09.255Z,23.60
2019-02-17T06:49:37.859Z,23.03
2019-02-17T06:52:06.434Z,24.37
2019-02-17T06:54:34.999Z,26.47
2019-02-17T06:57:05.300Z,25.37
2019-02-17T06:59:34.307Z,28.60
2019-02-17T07:02:03.449Z,29.73
2019-02-17T07:04:36.826Z,34.70
2019-02-17T07:07:05.745Z,29.20
2019-02-17T07:09:34.279Z,28.73
2019-02-17T07:12:02.980Z,28.67
2019-02-17T07:14:34.511Z,28.07
2019-02-17T07:17:03.331Z,30.93
2019-02-17T07:19:32.007Z,28.97
2019-02-17T07:22:04.641Z,29.90
2019-02-17T07:24:36.405Z,29.27
2019-02-17T07:27:05.523Z,27.67
2019-02-17T07:29:34.350Z,28.07
2019-02-17T07:32:04.796Z,28.03
2019-02-17T07:34:35.468Z,26.83
2019-02-17T07:37:04.164Z,24.03
2019-02-17T07:39:32.830Z,23.60
2019-02-17T07:42:01.396Z,28.10
2019-02-17T07:44:30.024Z,27.10
2019-02-17T07:46:58.696Z,27.20
2019-02-17T07:49:27.265Z,27.07
2019-02-17T07:51:56.246Z,26.73
2019-02-17T07:54:28.084Z,26.27
2019-02-17T07:56:58.813Z,25.87
2019-02-17T07:59:27.519Z,25.40
2019-02-17T08:01:56.240Z,25.83
2019-02-17T08:04:25.699Z,26.43
2019-02-17T08:06:54.283Z,28.80
2019-02-17T08:09:22.965Z,25.33
2019-02-17T08:11:51.542Z,25.60
2019-02-17T08:14:20.185Z,26.67
2019-02-17T08:16:49.077Z,26.73
2019-02-17T08:19:17.741Z,25.20
2019-02-17T08:21:46.385Z,28.63
2019-02-17T08:24:14.976Z,25.53
2019-02-17T08:26:45.769Z,26.83
2019-02-17T08:29:17.186Z,30.13
2019-02-17T08:31:54.939Z,25.73
2019-02-17T08:34:21.590Z,25.67
2019-02-17T08:36:50.176Z,20.17
2019-02-17T08:39:18.752Z,20.60
2019-02-17T08:41:49.455Z,24.10
2019-02-17T08:44:19.123Z,22.03
2019-02-17T08:46:47.616Z,18.63
2019-02-17T08:49:16.269Z,19.67
2019-02-17T08:51:45.186Z,20.23
2019-02-17T08:54:13.926Z,19.67
2019-02-17T08:56:42.848Z,20.00
2019-02-17T08:59:12.040Z,18.97
2019-02-17T09:01:46.235Z,20.03
2019-02-17T09:04:15.093Z,17.90
2019-02-17T09:06:43.929Z,21.97
2019-02-17T09:09:12.660Z,22.73
2019-02-17T09:11:41.373Z,19.50
2019-02-17T09:14:10.131Z,19.37
2019-02-17T09:16:38.845Z,19.07
2019-02-17T09:19:07.428Z,20.10
2019-02-17T09:21:40.390Z,22.23
2019-02-17T09:24:09.194Z,20.87
2019-02-17T09:26:38.027Z,22.77
2019-02-17T09:29:07.252Z,18.60
2019-02-17T09:31:36.248Z,23.50
2019-02-17T09:34:04.963Z,21.43
2019-02-17T09:36:33.893Z,19.67
2019-02-17T09:39:02.869Z,18.53
2019-02-17T09:41:31.438Z,20.27
2019-02-17T09:44:00.673Z,20.10
2019-02-17T09:46:30.535Z,22.20
2019-02-17T09:48:59.250Z,19.75
2019-02-17T09:51:32.682Z,21.50
2019-02-17T09:54:02.747Z,24.37
2019-02-17T09:56:31.682Z,21.12
2019-02-17T09:59:00.444Z,20.27
2019-02-17T10:01:33.276Z,21.10
2019-02-17T10:04:02.284Z,18.60
2019-02-17T10:06:32.855Z,20.45
2019-02-17T10:09:01.669Z,19.32
2019-02-17T10:11:30.309Z,23.35
2019-02-17T10:14:01.080Z,22.48
2019-02-17T10:16:31.831Z,22.10
2019-02-17T10:19:00.967Z,20.50
2019-02-17T10:21:32.676Z,22.22
2019-02-17T10:24:01.289Z,21.75
2019-02-17T10:26:31.802Z,23.90
2019-02-17T10:29:00.622Z,24.77
2019-02-17T10:31:29.394Z,19.70
2019-02-17T10:34:01.255Z,23.05
2019-02-17T10:36:33.168Z,21.15
2019-02-17T10:39:01.890Z,17.85
2019-02-17T10:41:30.549Z,21.87
2019-02-17T10:43:59.141Z,19.52
2019-02-17T10:46:33.929Z,21.25
2019-02-17T10:49:12.239Z,21.85
2019-02-17T10:51:44.128Z,23.02
2019-02-17T10:54:12.845Z,23.07
2019-02-17T10:56:41.560Z,22.62
2019-02-17T10:59:10.200Z,23.85
2019-02-17T11:01:38.949Z,24.10
2019-02-17T11:04:08.890Z,23.42
2019-02-17T11:06:37.457Z,24.60
2019-02-17T11:09:09.048Z,22.80
2019-02-17T11:11:38.955Z,25.10
2019-02-17T11:14:08.942Z,22.35
2019-02-17T11:16:38.219Z,21.17
2019-02-17T11:19:15.031Z,21.93
2019-02-17T11:21:47.859Z,22.62
2019-02-17T11:24:16.675Z,22.43
2019-02-17T11:26:45.401Z,23.15
2019-02-17T11:29:14.247Z,21.13
2019-02-17T11:31:43.124Z,24.67
2019-02-17T11:34:11.858Z,21.05
2019-02-17T11:36:40.813Z,23.98
2019-02-17T11:39:11.749Z,22.90
2019-02-17T11:41:44.613Z,22.35
2019-02-17T11:44:15.165Z,23.52
2019-02-17T11:46:44.085Z,25.80
2019-02-17T11:49:15.357Z,24.07
2019-02-17T11:51:45.896Z,23.77
2019-02-17T11:54:17.526Z,22.13
2019-02-17T11:56:46.171Z,21.73
2019-02-17T11:59:14.829Z,26.45
2019-02-17T12:01:43.524Z,21.02
2019-02-17T12:04:12.450Z,22.02
2019-02-17T12:06:44.122Z,20.72
2019-02-17T12:09:19.665Z,18.87
2019-02-17T12:11:48.348Z,21.30
2019-02-17T12:14:16.987Z,22.90
2019-02-17T12:16:47.671Z,21.57
2019-02-17T12:19:17.563Z,19.20
2019-02-17T12:21:48.087Z,18.82
2019-02-17T12:24:18.631Z,22.80
2019-02-17T12:26:50.146Z,22.20
2019-02-17T12:29:30.610Z,24.70
2019-02-17T12:31:59.279Z,20.43
2019-02-17T12:34:29.231Z,20.92
2019-02-17T12:36:57.831Z,19.57
2019-02-17T12:39:29.299Z,18.67
2019-02-17T12:42:04.873Z,21.12
2019-02-17T12:44:35.691Z,18.73
2019-02-17T12:47:06.814Z,18.67
2019-02-17T12:49:35.884Z,19.70
2019-02-17T12:52:04.892Z,21.87
2019-02-17T12:54:36.061Z,22.35
2019-02-17T12:57:10.754Z,20.82
2019-02-17T12:59:41.819Z,18.90
2019-02-17T13:02:16.223Z,20.60
2019-02-17T13:04:45.672Z,18.27
2019-02-17T13:07:14.405Z,19.87
2019-02-17T13:09:47.186Z,16.12
2019-02-17T13:12:18.656Z,22.52
2019-02-17T13:14:49.778Z,16.02
2019-02-17T13:17:21.706Z,17.67
2019-02-17T13:19:50.355Z,16.25
2019-02-17T13:22:20.524Z,16.20
2019-02-17T13:24:49.352Z,17.27
2019-02-17T13:27:19.802Z,16.90
2019-02-17T13:29:57.155Z,17.32
2019-02-17T13:32:28.116Z,15.20
2019-02-17T13:35:00.143Z,16.95
2019-02-17T13:37:30.294Z,15.28
2019-02-17T13:40:01.636Z,18.80
2019-02-17T13:42:33.336Z,27.15
2019-02-17T13:45:15.953Z,18.73
2019-02-17T13:47:44.758Z,17.52
2019-02-17T13:50:20.036Z,17.50
2019-02-17T13:52:49.077Z,18.10
2019-02-17T13:55:19.475Z,19.07
2019-02-17T13:57:48.184Z,18.00
2019-02-17T14:00:19.095Z,16.02
2019-02-17T14:02:48.177Z,17.90
2019-02-17T14:05:17.445Z,15.32
2019-02-17T14:07:48.888Z,19.77
2019-02-17T14:10:20.245Z,19.23
2019-02-17T14:12:50.821Z,18.10
2019-02-17T14:15:20.371Z,19.92
2019-02-17T14:17:50.725Z,18.37
2019-02-17T14:20:19.452Z,26.82
2019-02-17T14:22:48.205Z,21.70
2019-02-17T14:25:21.427Z,24.65
2019-02-17T14:27:50.285Z,24.23
2019-02-17T14:30:21.940Z,19.82
2019-02-17T14:32:50.870Z,22.55
2019-02-17T14:35:19.449Z,22.27
2019-02-17T14:37:51.413Z,23.73
2019-02-17T14:40:24.476Z,24.75
2019-02-17T14:42:58.580Z,22.22
2019-02-17T14:45:30.408Z,21.97
2019-02-17T14:48:00.592Z,21.52
2019-02-17T14:50:29.828Z,22.95
2019-02-17T14:53:02.055Z,25.25
2019-02-17T14:55:30.477Z,23.77
2019-02-17T14:58:05.564Z,22.25
2019-02-17T15:00:36.155Z,24.25
2019-02-17T15:03:09.964Z,23.38
2019-02-17T15:05:40.307Z,22.40
2019-02-17T15:08:15.138Z,21.07
2019-02-17T15:10:46.869Z,20.88
2019-02-17T15:13:15.611Z,24.02
2019-02-17T15:15:46.782Z,25.50
2019-02-17T15:18:21.240Z,23.92
2019-02-17T15:20:57.076Z,21.50
2019-02-17T15:23:25.651Z,21.77
2019-02-17T15:26:01.715Z,22.82
2019-02-17T15:28:30.320Z,22.35
2019-02-17T15:30:59.254Z,24.07
2019-02-17T15:33:28.329Z,23.38
2019-02-17T15:36:06.238Z,23.90
2019-02-17T15:38:34.899Z,26.25
2019-02-17T15:41:10.739Z,25.52
2019-02-17T15:43:43.593Z,25.08
2019-02-17T15:46:16.161Z,25.82
2019-02-17T15:48:46.743Z,26.10
2019-02-17T15:51:22.288Z,23.20
2019-02-17T15:53:58.683Z,25.53
2019-02-17T15:56:30.645Z,22.40
2019-02-17T15:58:59.288Z,22.40
2019-02-17T16:01:28.015Z,23.87
2019-02-17T16:03:57.187Z,26.57
2019-02-17T16:06:25.835Z,26.60
2019-02-17T16:08:54.715Z,23.77
2019-02-17T16:11:25.323Z,23.30
2019-02-17T16:13:58.540Z,23.60
2019-02-17T16:16:35.097Z,23.73
2019-02-17T16:19:08.161Z,28.70
2019-02-17T16:21:38.729Z,25.23
2019-02-17T16:24:07.690Z,27.97
2019-02-17T16:26:41.195Z,26.73
2019-02-17T16:29:10.137Z,27.50
2019-02-17T16:31:38.865Z,28.37
2019-02-17T16:34:08.077Z,26.07
2019-02-17T16:36:36.660Z,25.80
2019-02-17T16:39:08.413Z,23.63
2019-02-17T16:41:37.127Z,20.03
2019-02-17T16:44:05.814Z,17.33
2019-02-17T16:46:34.456Z,18.10
2019-02-17T16:49:07.943Z,15.47
2019-02-17T16:51:36.869Z,13.80
2019-02-17T16:54:11.248Z,13.53
2019-02-17T16:56:43.850Z,15.07
2019-02-17T16:59:12.195Z,14.17
2019-02-17T17:01:41.880Z,17.20
2019-02-17T17:04:10.696Z,17.93
2019-02-17T17:06:41.795Z,14.93
2019-02-17T17:09:10.752Z,14.17
2019-02-17T17:11:49.722Z,13.83
2019-02-17T17:14:20.462Z,12.70
2019-02-17T17:16:52.270Z,12.70
2019-02-17T17:19:23.184Z,14.93
2019-02-17T17:21:51.872Z,11.10
2019-02-17T17:24:23.540Z,11.70
2019-02-17T17:26:53.673Z,10.60
2019-02-17T17:29:22.246Z,10.83
2019-02-17T17:31:50.844Z,14.13
2019-02-17T17:34:19.647Z,9.53
2019-02-17T17:36:48.275Z,10.90
2019-02-17T17:39:18.786Z,10.30
2019-02-17T17:41:47.984Z,10.40
2019-02-17T17:44:17.075Z,13.27
2019-02-17T17:46:45.852Z,11.57
2019-02-17T17:49:19.265Z,12.73
2019-02-17T17:51:48.765Z,11.93
2019-02-17T17:54:17.659Z,10.60
2019-02-17T17:56:48.083Z,9.10
2019-02-17T17:59:21.539Z,10.97
2019-02-17T18:01:51.343Z,9.57
2019-02-17T18:04:20.222Z,11.50
2019-02-17T18:06:51.798Z,11.30
2019-02-17T18:09:39.796Z,10.67
2019-02-17T18:12:09.846Z,9.67
2019-02-17T18:14:38.418Z,10.03
2019-02-17T18:17:15.772Z,12.30
2019-02-17T18:19:50.643Z,12.57
2019-02-17T18:22:25.684Z,9.53
2019-02-17T18:24:54.230Z,8.50
2019-02-17T18:27:24.400Z,10.40
2019-02-17T18:29:54.598Z,9.10
2019-02-17T18:32:27.868Z,8.43
2019-02-17T18:35:03.256Z,10.23
2019-02-17T18:37:32.373Z,10.33
2019-02-17T18:40:02.693Z,11.83
2019-02-17T18:42:31.343Z,15.43
2019-02-17T18:45:03.884Z,10.30
2019-02-17T18:47:32.637Z,8.47
2019-02-17T18:50:01.581Z,10.40
2019-02-17T18:52:37.725Z,12.03
2019-02-17T18:55:08.567Z,10.13
2019-02-17T18:57:38.214Z,9.80
2019-02-17T19:00:27.631Z,11.30
2019-02-17T19:02:58.322Z,11.07
2019-02-17T19:05:32.139Z,9.47
2019-02-17T19:07:59.279Z,9.80
2019-02-17T19:13:17.467Z,10.93
2019-02-17T19:15:53.758Z,10.23
2019-02-17T19:18:24.385Z,19.87
2019-02-17T19:20:53.863Z,10.33
2019-02-17T19:23:23.699Z,7.20
2019-02-17T19:25:57.184Z,10.90
2019-02-17T19:28:32.735Z,9.47
2019-02-17T19:31:05.749Z,9.37
2019-02-17T19:33:34.369Z,7.60
2019-02-17T19:36:11.452Z,10.20
2019-02-17T19:38:42.081Z,8.90
2019-02-17T19:41:10.703Z,8.40
2019-02-17T19:43:42.325Z,8.40
2019-02-17T19:46:13.797Z,8.27
2019-02-17T19:48:45.396Z,10.07
2019-02-17T19:51:14.078Z,9.10
2019-02-17T19:53:42.643Z,6.90
2019-02-17T19:56:12.121Z,9.30
2019-02-17T19:58:43.992Z,10.10
2019-02-17T20:01:16.891Z,10.30
2019-02-17T20:03:53.276Z,12.67
2019-02-17T20:06:23.598Z,11.47
2019-02-17T20:08:55.122Z,14.10
2019-02-17T20:11:24.176Z,11.10
2019-02-17T20:13:55.598Z,9.03
2019-02-17T20:16:25.779Z,11.40
2019-02-17T20:18:57.494Z,12.33
2019-02-17T20:21:26.362Z,9.83
2019-02-17T20:23:54.986Z,10.33
2019-02-17T20:26:23.952Z,11.57
2019-02-17T20:28:57.388Z,9.47
2019-02-17T20:31:23.025Z,10.83
2019-02-17T20:33:52.182Z,10.43
2019-02-17T20:36:21.077Z,10.47
2019-02-17T20:38:50.054Z,9.80
2019-02-17T20:41:19.591Z,10.63
2019-02-17T20:43:54.531Z,10.70
2019-02-17T20:46:26.818Z,10.47
2019-02-17T20:48:57.076Z,11.80
2019-02-17T20:51:31.661Z,9.70
2019-02-17T20:54:00.895Z,10.67
2019-02-17T20:56:33.156Z,10.10
2019-02-17T20:59:01.742Z,10.77
2019-02-17T21:01:30.572Z,11.60
2019-02-17T21:04:00.896Z,10.07
2019-02-17T21:06:29.981Z,10.00
2019-02-17T21:09:00.076Z,11.83
2019-02-17T21:11:29.295Z,10.97
2019-02-17T21:14:00.084Z,10.10
2019-02-17T21:16:30.401Z,11.80
2019-02-17T21:19:05.134Z,8.83
2019-02-17T21:21:33.886Z,11.17
2019-02-17T21:24:06.420Z,10.13
2019-02-17T21:26:38.853Z,11.10
2019-02-17T21:29:07.770Z,12.43
2019-02-17T21:31:36.410Z,13.63
2019-02-17T21:34:06.803Z,11.23
2019-02-17T21:36:37.558Z,12.97
2019-02-17T21:39:06.854Z,10.63
2019-02-17T21:41:35.567Z,10.83
2019-02-17T21:44:06.995Z,9.67
2019-02-17T21:46:35.549Z,11.40
2019-02-17T21:49:05.289Z,13.40
2019-02-17T21:51:34.300Z,14.77
2019-02-17T21:54:04.862Z,11.67
2019-02-17T21:56:36.354Z,12.63
2019-02-17T21:59:07.203Z,12.60
2019-02-17T22:01:38.766Z,14.43
2019-02-17T22:04:08.900Z,9.83
2019-02-17T22:06:37.615Z,12.60
2019-02-17T22:09:06.519Z,11.20
2019-02-17T22:11:35.347Z,11.77
2019-02-17T22:14:04.292Z,13.40
2019-02-17T22:16:34.411Z,12.37
2019-02-17T22:19:03.351Z,10.30
2019-02-17T22:21:32.235Z,11.37
2019-02-17T22:24:00.857Z,10.40
2019-02-17T22:26:29.617Z,12.67
2019-02-17T22:28:58.949Z,15.40
2019-02-17T22:31:29.078Z,8.77
2019-02-17T22:34:06.879Z,12.47
2019-02-17T22:36:43.639Z,12.23
2019-02-17T22:39:09.023Z,12.93
2019-02-17T22:41:39.185Z,10.40
2019-02-17T22:44:07.924Z,12.37
2019-02-17T22:46:36.497Z,12.40
2019-02-17T22:49:05.195Z,11.77
2019-02-17T22:51:34.575Z,14.93
2019-02-17T22:54:03.195Z,11.20
2019-02-17T22:56:31.765Z,12.07
2019-02-17T22:59:02.655Z,11.50
2019-02-17T23:01:31.487Z,10.13
2019-02-17T23:04:00.420Z,11.47
2019-02-17T23:06:29.451Z,12.20
2019-02-17T23:08:58.264Z,11.20
2019-02-17T23:11:26.878Z,10.67
2019-02-17T23:13:55.604Z,12.27
2019-02-17T23:16:24.189Z,10.40
2019-02-17T23:18:53.122Z,12.60
2019-02-17T23:21:22.122Z,10.23
2019-02-17T23:23:50.758Z,11.03
2019-02-17T23:26:19.601Z,12.20
2019-02-17T23:28:48.464Z,12.43
2019-02-17T23:31:17.017Z,15.50
2019-02-17T23:33:45.642Z,14.27
2019-02-17T23:36:14.419Z,14.97
2019-02-17T23:38:46.804Z,15.10
2019-02-17T23:41:15.328Z,15.83
2019-02-17T23:43:44.301Z,14.30
2019-02-17T23:46:13.062Z,14.73
2019-02-17T23:48:43.538Z,13.40
2019-02-17T23:51:11.960Z,14.03
2019-02-17T23:53:41.433Z,17.17
2019-02-17T23:56:10.054Z,16.57
2019-02-17T23:58:39.178Z,14.80
